Time;durP1;ratioP1;P1;durP2;ratioP2;P2;SDS_P1;SDS_P2;PMS_P1;PMS_P2;Temp;Humidity;BMP_temperature;BMP_pressure;BME280_temperature;BME280_humidity;BME280_pressure;Samples;Min_cycle;Max_cycle;Signal;HPM_P1;HPM_P2
2022/06/10 00:02:09;;;;;;;;;;;;;;;16.94;61.97;100888.81;4959428;28;127599;-66
2022/06/10 00:04:35;;;;;;;;;;;;;;;16.95;61.91;100898.59;4974100;28;118414;-66
2022/06/10 00:07:01;;;;;;;;;;;;;;;16.93;62.14;100898.88;4981013;28;127788;-66
2022/06/10 00:09:27;;;;;;;;;;;;;;;16.92;61.86;100905.44;4977944;27;127832;-61
2022/06/10 00:11:53;;;;;;;;;;;;;;;16.91;61.89;100912.00;4977326;28;120933;-61
2022/06/10 00:14:19;;;;;;;;;;;;;;;16.88;61.95;100912.59;4966384;28;98184;-61
2022/06/10 00:16:45;;;;;;;;;;;;;;;16.86;61.98;100911.28;4958645;28;99307;-61
2022/06/10 00:19:11;;;;;;;;;;;;;;;16.85;61.95;100924.06;4957935;28;127990;-62
2022/06/10 00:21:36;;;;;;;;;;;;;;;16.83;61.81;100925.50;4960853;28;98264;-61
2022/06/10 00:24:02;;;;;;;;;;;;;;;16.83;62.04;100928.22;4970873;28;116948;-61
2022/06/10 00:26:28;;;;;;;;;;;;;;;16.81;62.06;100924.97;4965362;28;128113;-67
2022/06/10 00:28:54;;;;;;;;;;;;;;;16.79;61.89;100925.28;4973892;28;128491;-67
2022/06/10 00:31:20;;;;;;;;;;;;;;;16.79;61.82;100925.28;4977941;28;126557;-61
2022/06/10 00:33:46;;;;;;;;;;;;;;;16.80;61.97;100931.53;4979496;28;106412;-61
2022/06/10 00:36:12;;;;;;;;;;;;;;;16.81;61.97;100938.59;4967502;28;98631;-62
2022/06/10 00:38:38;;;;;;;;;;;;;;;16.82;62.00;100934.75;4959786;28;97987;-61
2022/06/10 00:41:04;;;;;;;;;;;;;;;16.84;61.91;100938.00;4973448;28;126671;-67
2022/06/10 00:43:32;;;;;;;;;;;;;;;16.85;61.93;100943.13;4959666;28;97965;-67
2022/06/10 00:46:13;;;;;;;;;;;;;;;16.87;61.97;100942.84;4967431;28;98970;-67
2022/06/10 00:48:58;;;;;;;;;;;;;;;16.88;61.83;100942.53;4977933;28;98480;-68
2022/06/10 00:51:37;;;;;;;;;;;;;;;16.90;61.72;100945.78;4960149;28;97908;-61
2022/06/10 00:54:35;;;;;;;;;;;;;;;16.92;61.77;100943.56;4972079;28;97812;-61
2022/06/10 00:57:13;;;;;;;;;;;;;;;16.95;61.70;100954.97;4960726;27;99200;-67
2022/06/10 00:59:42;;;;;;;;;;;;;;;16.95;61.56;100949.53;4974794;28;126539;-67
2022/06/10 01:02:14;;;;;;;;;;;;;;;16.95;61.69;100957.69;4978741;27;124936;-61
2022/06/10 01:04:40;;;;;;;;;;;;;;;16.93;61.83;100955.25;4980766;27;97917;-67
2022/06/10 01:07:07;;;;;;;;;;;;;;;16.93;61.65;100957.97;4966068;27;99038;-62
2022/06/10 01:09:33;;;;;;;;;;;;;;;16.93;61.40;100968.88;4963121;28;98510;-67
2022/06/10 01:12:05;;;;;;;;;;;;;;;16.91;61.60;100968.38;4961827;28;127689;-69
2022/06/10 01:14:55;;;;;;;;;;;;;;;16.91;61.52;100971.91;4963076;28;98171;-68
2022/06/10 01:17:43;;;;;;;;;;;;;;;16.90;61.30;100970.28;4992211;27;99093;-67
2022/06/10 01:20:34;;;;;;;;;;;;;;;16.88;61.37;100967.03;4973367;28;98314;-67
2022/06/10 01:23:11;;;;;;;;;;;;;;;16.87;61.47;100975.53;4963893;28;98852;-61
2022/06/10 01:26:05;;;;;;;;;;;;;;;16.87;61.29;100970.06;4976613;28;108221;-67
2022/06/10 01:29:09;;;;;;;;;;;;;;;16.85;61.25;100983.97;4986914;27;126514;-66
2022/06/10 01:32:09;;;;;;;;;;;;;;;16.85;61.18;100983.16;4982543;27;99236;-61
2022/06/10 01:34:47;;;;;;;;;;;;;;;16.84;61.08;100987.00;4961939;28;115786;-67
2022/06/10 01:37:21;;;;;;;;;;;;;;;16.84;60.88;100989.72;4980078;28;116754;-61
2022/06/10 01:40:14;;;;;;;;;;;;;;;16.82;60.94;100987.31;4995045;27;98359;-62
2022/06/10 01:42:50;;;;;;;;;;;;;;;16.81;60.79;101001.19;4980388;28;98492;-67
2022/06/10 01:45:36;;;;;;;;;;;;;;;16.80;60.84;101003.09;4965588;28;97991;-61
2022/06/10 01:48:11;;;;;;;;;;;;;;;16.79;60.87;101004.22;4976382;28;97868;-61
2022/06/10 01:50:54;;;;;;;;;;;;;;;16.78;60.73;101008.06;4947563;28;109042;-67
2022/06/10 01:53:24;;;;;;;;;;;;;;;16.84;60.63;101009.59;4960315;28;98660;-61
2022/06/10 01:55:56;;;;;;;;;;;;;;;16.95;60.62;101007.50;4960046;28;125809;-66
2022/06/10 01:58:43;;;;;;;;;;;;;;;17.02;60.21;101010.66;4961396;28;97931;-66
2022/06/10 02:01:15;;;;;;;;;;;;;;;17.10;60.02;101007.25;4959965;28;126229;-68
2022/06/10 02:03:46;;;;;;;;;;;;;;;17.14;59.90;101019.19;4960233;28;119154;-63
2022/06/10 02:06:33;;;;;;;;;;;;;;;17.17;59.87;101018.59;4959905;28;123206;-66
2022/06/10 02:09:07;;;;;;;;;;;;;;;17.19;59.77;101029.19;4978391;27;103915;-61
2022/06/10 02:11:33;;;;;;;;;;;;;;;17.21;59.74;101035.13;4961936;28;116965;-61
2022/06/10 02:14:08;;;;;;;;;;;;;;;17.22;59.63;101036.75;4980228;28;126544;-66
2022/06/10 02:16:37;;;;;;;;;;;;;;;17.20;59.34;101040.88;4964456;28;104040;-60
2022/06/10 02:19:15;;;;;;;;;;;;;;;17.19;59.35;101053.69;4966451;28;114477;-66
2022/06/10 02:21:49;;;;;;;;;;;;;;;17.17;59.38;101054.00;4962967;28;102910;-61
2022/06/10 02:24:25;;;;;;;;;;;;;;;17.15;59.37;101055.41;4973502;28;98907;-61
2022/06/10 02:26:51;;;;;;;;;;;;;;;17.13;59.33;101061.16;4962755;28;124667;-61
2022/06/10 02:29:19;;;;;;;;;;;;;;;17.11;59.43;101065.28;4948569;28;98188;-61
2022/06/10 02:31:51;;;;;;;;;;;;;;;17.07;59.24;101065.03;4959528;28;110650;-63
2022/06/10 02:34:17;;;;;;;;;;;;;;;17.03;59.27;101072.19;4976106;27;122197;-61
2022/06/10 02:36:45;;;;;;;;;;;;;;;16.96;59.26;101069.03;4961453;28;98200;-66
2022/06/10 02:39:18;;;;;;;;;;;;;;;16.89;59.31;101076.75;4990239;27;112180;-67
2022/06/10 02:42:06;;;;;;;;;;;;;;;16.81;59.29;101069.25;4981849;27;98702;-61
2022/06/10 02:45:00;;;;;;;;;;;;;;;16.74;59.32;101083.25;4980605;27;123993;-66
2022/06/10 02:47:34;;;;;;;;;;;;;;;16.67;59.34;101090.94;4958301;28;97961;-61
2022/06/10 02:50:00;;;;;;;;;;;;;;;16.62;59.32;101090.97;4971545;28;117512;-67
2022/06/10 02:52:27;;;;;;;;;;;;;;;16.57;59.53;101096.50;4958034;28;126122;-61
2022/06/10 02:54:53;;;;;;;;;;;;;;;16.51;59.64;101090.31;4959235;28;119981;-66
2022/06/10 03:01:11;;;;;;;;;;;;;;;16.47;59.69;101100.16;4961040;28;127793;-66
2022/06/10 03:03:00;;;;;;;;;;;;;;;16.36;59.63;101115.00;4965433;28;98226;-66
2022/06/10 03:06:05;;;;;;;;;;;;;;;16.30;59.60;101106.06;4979646;28;98408;-61
2022/06/10 03:09:11;;;;;;;;;;;;;;;16.24;59.62;101118.13;4948191;28;128022;-61
2022/06/10 03:11:51;;;;;;;;;;;;;;;16.19;59.70;101121.72;4925695;28;97857;-61
2022/06/10 03:14:19;;;;;;;;;;;;;;;16.16;59.70;101129.63;4976115;28;98790;-61
2022/06/10 03:16:58;;;;;;;;;;;;;;;16.13;59.81;101128.28;4974289;28;124580;-67
2022/06/10 03:19:45;;;;;;;;;;;;;;;16.11;59.70;101132.41;4981625;27;98651;-66
2022/06/10 03:22:41;;;;;;;;;;;;;;;16.10;59.53;101137.03;4974908;28;97768;-66
2022/06/10 03:25:20;;;;;;;;;;;;;;;16.08;59.72;101138.44;4954216;28;98230;-68
2022/06/10 03:28:26;;;;;;;;;;;;;;;16.05;59.78;101142.53;4940085;28;110780;-66
2022/06/10 03:31:08;;;;;;;;;;;;;;;16.01;59.48;101143.38;4956940;28;98128;-61
2022/06/10 03:33:42;;;;;;;;;;;;;;;15.99;59.66;101143.66;4957382;28;98250;-61
2022/06/10 03:36:13;;;;;;;;;;;;;;;15.98;59.78;101154.84;4937128;28;127955;-68
2022/06/10 03:38:41;;;;;;;;;;;;;;;15.97;59.59;101155.94;4961281;28;125531;-61
2022/06/10 03:41:07;;;;;;;;;;;;;;;15.94;59.82;101160.84;4958582;28;98834;-61
2022/06/10 03:43:37;;;;;;;;;;;;;;;15.92;59.82;101156.81;4967123;28;117516;-61
2022/06/10 03:46:07;;;;;;;;;;;;;;;15.90;59.79;101169.84;4978244;28;115007;-61
2022/06/10 03:48:34;;;;;;;;;;;;;;;15.88;60.09;101172.88;4971226;28;123990;-67
2022/06/10 03:51:00;;;;;;;;;;;;;;;15.85;59.74;101178.06;4943722;28;122599;-62
2022/06/10 03:53:26;;;;;;;;;;;;;;;15.82;59.93;101187.59;4967703;28;117472;-61
2022/06/10 03:55:52;;;;;;;;;;;;;;;15.82;59.89;101193.03;4980283;28;109765;-66
2022/06/10 03:58:18;;;;;;;;;;;;;;;15.81;60.22;101194.13;4977517;27;98568;-60
2022/06/10 04:00:44;;;;;;;;;;;;;;;15.81;60.39;101193.31;4979814;28;127666;-66
2022/06/10 04:03:10;;;;;;;;;;;;;;;15.80;60.23;101191.69;4978836;28;115950;-66
2022/06/10 04:05:37;;;;;;;;;;;;;;;15.81;60.08;101193.31;4979117;28;128131;-60
2022/06/10 04:08:03;;;;;;;;;;;;;;;15.81;60.07;101199.56;4978986;28;98359;-61
2022/06/10 04:10:29;;;;;;;;;;;;;;;15.83;59.91;101200.06;4959216;28;126774;-61
2022/06/10 04:12:55;;;;;;;;;;;;;;;15.86;59.91;101196.00;4960896;28;98037;-63
2022/06/10 04:15:21;;;;;;;;;;;;;;;15.92;60.06;101208.47;4961305;28;98127;-66
2022/06/10 04:17:48;;;;;;;;;;;;;;;15.98;59.88;101204.59;4960720;28;116773;-61
2022/06/10 04:20:16;;;;;;;;;;;;;;;16.04;59.98;101208.88;4979540;27;98231;-66
2022/06/10 04:22:42;;;;;;;;;;;;;;;16.09;59.80;101206.13;4979555;28;97691;-66
2022/06/10 04:25:09;;;;;;;;;;;;;;;16.15;59.83;101213.13;4979699;28;120722;-61
2022/06/10 04:27:35;;;;;;;;;;;;;;;16.19;59.75;101214.19;4979156;27;99540;-61
2022/06/10 04:30:01;;;;;;;;;;;;;;;16.24;59.53;101218.75;4979861;28;102442;-67
2022/06/10 04:32:27;;;;;;;;;;;;;;;16.31;59.62;101215.69;4973605;27;116659;-67
2022/06/10 04:34:53;;;;;;;;;;;;;;;16.38;59.60;101218.88;4958163;27;128024;-67
2022/06/10 04:37:18;;;;;;;;;;;;;;;16.46;59.46;101220.97;4955437;28;126725;-67
2022/06/10 04:39:44;;;;;;;;;;;;;;;16.52;59.42;101222.56;4965309;28;121313;-62
2022/06/10 04:42:11;;;;;;;;;;;;;;;16.61;59.24;101230.88;4962433;28;97836;-61
2022/06/10 04:44:36;;;;;;;;;;;;;;;16.67;58.99;101227.81;4957187;28;128392;-67
2022/06/10 04:47:02;;;;;;;;;;;;;;;16.74;59.05;101229.41;4960403;28;125375;-67
2022/06/10 04:49:30;;;;;;;;;;;;;;;16.82;59.12;101240.50;4957910;28;124858;-62
2022/06/10 04:51:56;;;;;;;;;;;;;;;16.91;58.57;101237.94;4960975;28;98466;-67
2022/06/10 04:54:22;;;;;;;;;;;;;;;17.00;58.56;101244.34;4956727;28;121394;-62
2022/06/10 04:56:48;;;;;;;;;;;;;;;17.10;58.46;101249.66;4959167;28;98286;-67
2022/06/10 04:59:14;;;;;;;;;;;;;;;17.22;58.23;101254.69;4959138;28;98124;-68
2022/06/10 05:01:40;;;;;;;;;;;;;;;17.36;58.11;101252.03;4962925;28;116650;-61
2022/06/10 05:04:06;;;;;;;;;;;;;;;17.49;58.00;101256.78;4961861;28;127931;-67
2022/06/10 05:06:32;;;;;;;;;;;;;;;17.63;57.66;101249.47;4961659;28;128607;-67
2022/06/10 05:08:58;;;;;;;;;;;;;;;17.78;57.54;101251.19;4973631;28;99033;-67
2022/06/10 05:11:23;;;;;;;;;;;;;;;17.95;57.18;101255.28;4982236;28;117697;-62
2022/06/10 05:13:49;;;;;;;;;;;;;;;18.09;57.02;101256.94;4979778;27;126725;-62
2022/06/10 05:16:15;;;;;;;;;;;;;;;18.26;56.87;101269.22;4982928;28;127932;-67
2022/06/10 05:18:41;;;;;;;;;;;;;;;18.41;56.55;101266.22;4972806;28;127154;-62
2022/06/10 05:21:07;;;;;;;;;;;;;;;18.57;56.23;101266.75;4980177;28;102749;-61
2022/06/10 05:23:33;;;;;;;;;;;;;;;18.74;56.02;101266.97;4980107;28;99182;-61
2022/06/10 05:25:59;;;;;;;;;;;;;;;18.92;55.49;101267.19;4980451;28;128127;-67
2022/06/10 05:28:26;;;;;;;;;;;;;;;19.10;55.40;101277.22;4980936;28;127447;-67
2022/06/10 05:30:52;;;;;;;;;;;;;;;19.31;54.93;101274.84;4983598;28;97856;-61
2022/06/10 05:33:18;;;;;;;;;;;;;;;19.49;54.43;101279.38;4968384;28;120865;-62
2022/06/10 05:35:44;;;;;;;;;;;;;;;19.73;53.94;101284.59;4963038;28;99194;-67
2022/06/10 05:38:10;;;;;;;;;;;;;;;19.96;53.76;101284.59;4967208;28;97772;-68
2022/06/10 05:40:36;;;;;;;;;;;;;;;20.22;53.38;101279.31;4982472;27;97873;-62
2022/06/10 05:43:02;;;;;;;;;;;;;;;20.50;53.03;101289.00;4972336;28;128602;-67
2022/06/10 05:45:29;;;;;;;;;;;;;;;20.88;52.40;101290.47;4961796;28;127264;-67
2022/06/10 05:47:57;;;;;;;;;;;;;;;22.67;48.88;101288.38;4962089;28;99268;-67
2022/06/10 05:50:25;;;;;;;;;;;;;;;24.78;45.55;101290.78;4970733;28;97923;-67
2022/06/10 05:52:51;;;;;;;;;;;;;;;26.35;43.56;101299.03;4971971;27;122015;-67
2022/06/10 05:55:18;;;;;;;;;;;;;;;27.77;41.90;101297.28;4982800;28;110183;-59
2022/06/10 05:57:44;;;;;;;;;;;;;;;28.99;40.02;101311.41;4980221;28;98007;-66
2022/06/10 06:00:14;;;;;;;;;;;;;;;29.41;39.80;101316.00;4983005;28;97854;-60
2022/06/10 06:02:41;;;;;;;;;;;;;;;28.93;41.37;101304.56;4976351;28;126524;-60
2022/06/10 06:05:10;;;;;;;;;;;;;;;29.54;40.68;101307.03;4962210;28;98419;-60
2022/06/10 06:07:36;;;;;;;;;;;;;;;31.56;37.19;101303.00;4962420;28;127373;-66
2022/06/10 06:10:02;;;;;;;;;;;;;;;32.98;34.91;101312.84;4941376;28;98025;-61
2022/06/10 06:12:28;;;;;;;;;;;;;;;33.42;33.88;101300.38;4941505;28;116321;-61
2022/06/10 06:14:54;;;;;;;;;;;;;;;32.54;34.81;101302.88;4940627;28;128115;-68
2022/06/10 06:17:20;;;;;;;;;;;;;;;33.34;33.67;101296.81;4941626;28;100736;-60
2022/06/10 06:19:46;;;;;;;;;;;;;;;34.30;31.88;101301.16;4943077;28;97889;-66
2022/06/10 06:22:12;;;;;;;;;;;;;;;33.55;32.95;101295.16;4941925;28;98537;-60
2022/06/10 06:24:38;;;;;;;;;;;;;;;34.65;31.55;101308.50;4940725;28;128073;-60
2022/06/10 06:27:05;;;;;;;;;;;;;;;34.98;31.25;101302.59;4941770;28;97823;-60
2022/06/10 06:29:31;;;;;;;;;;;;;;;34.83;31.23;101297.16;4942417;28;114845;-60
2022/06/10 06:31:57;;;;;;;;;;;;;;;35.02;30.88;101298.59;4941250;28;128289;-66
2022/06/10 06:34:24;;;;;;;;;;;;;;;35.82;29.85;101293.66;4940516;28;129089;-68
2022/06/10 06:36:50;;;;;;;;;;;;;;;35.71;29.75;101295.81;4941503;28;98370;-68
2022/06/10 06:39:18;;;;;;;;;;;;;;;34.97;29.94;101299.00;4939874;28;115260;-61
2022/06/10 06:41:44;;;;;;;;;;;;;;;34.52;30.01;101287.03;4941233;27;98126;-66
2022/06/10 06:44:10;;;;;;;;;;;;;;;33.99;30.65;101294.56;4941218;28;126973;-60
2022/06/10 06:46:37;;;;;;;;;;;;;;;33.60;30.83;101292.75;4940958;28;124769;-66
2022/06/10 06:49:05;;;;;;;;;;;;;;;33.27;30.44;101290.44;4941732;28;97904;-60
2022/06/10 06:51:32;;;;;;;;;;;;;;;32.89;29.78;101290.88;4976863;28;98549;-60
2022/06/10 06:53:58;;;;;;;;;;;;;;;32.57;30.51;101282.53;4961480;28;99081;-60
2022/06/10 06:56:28;;;;;;;;;;;;;;;32.31;30.20;101285.72;4961097;28;98331;-67
2022/06/10 06:58:55;;;;;;;;;;;;;;;32.01;30.01;101279.28;4961114;28;97873;-61
2022/06/10 07:01:21;;;;;;;;;;;;;;;31.89;30.34;101290.78;4960238;28;98487;-67
2022/06/10 07:03:47;;;;;;;;;;;;;;;31.72;31.01;101292.31;4960754;28;110645;-67
2022/06/10 07:06:13;;;;;;;;;;;;;;;31.91;30.23;101291.22;4960313;28;127582;-61
2022/06/10 07:08:39;;;;;;;;;;;;;;;32.08;30.14;101295.22;4962290;28;111233;-68
2022/06/10 07:11:05;;;;;;;;;;;;;;;32.15;29.61;101300.03;4960188;28;127502;-66
2022/06/10 07:13:31;;;;;;;;;;;;;;;32.24;29.58;101301.22;4960588;28;119743;-63
2022/06/10 07:15:58;;;;;;;;;;;;;;;32.36;29.39;101300.03;4961146;28;108078;-60
2022/06/10 07:18:24;;;;;;;;;;;;;;;32.50;29.36;101296.47;4960230;28;114872;-67
2022/06/10 07:20:50;;;;;;;;;;;;;;;32.61;28.70;101290.91;4961224;28;98602;-60
2022/06/10 07:23:16;;;;;;;;;;;;;;;32.72;28.73;101288.91;4960386;28;110552;-60
2022/06/10 07:25:42;;;;;;;;;;;;;;;32.85;28.98;101298.47;4960824;28;97902;-60
2022/06/10 07:28:11;;;;;;;;;;;;;;;32.97;28.78;101294.50;4961377;28;99585;-67
2022/06/10 07:30:37;;;;;;;;;;;;;;;33.06;28.80;101299.69;4960675;28;98795;-67
2022/06/10 07:33:03;;;;;;;;;;;;;;;33.15;28.18;101291.69;4960734;28;103374;-60
2022/06/10 07:35:29;;;;;;;;;;;;;;;33.31;28.00;101294.03;4959989;28;126038;-60
2022/06/10 07:37:55;;;;;;;;;;;;;;;33.46;28.20;101298.41;4961135;28;97767;-67
2022/06/10 07:43:17;;;;;;;;;;;;;;;33.85;27.93;101298.22;4960111;28;97767;-60
2022/06/10 07:45:43;;;;;;;;;;;;;;;34.11;27.50;101301.69;4958640;28;111122;-60
2022/06/10 07:48:11;;;;;;;;;;;;;;;34.37;27.48;101298.31;4960592;28;98079;-61
2022/06/10 07:50:37;;;;;;;;;;;;;;;34.67;27.03;101300.50;4960975;28;98520;-60
2022/06/10 07:53:03;;;;;;;;;;;;;;;34.85;26.84;101300.31;4960701;28;98909;-60
2022/06/10 07:55:29;;;;;;;;;;;;;;;35.27;26.56;101303.13;4957902;28;123905;-60
2022/06/10 07:57:55;;;;;;;;;;;;;;;35.67;26.21;101300.69;4958130;28;116226;-66
2022/06/10 08:00:21;;;;;;;;;;;;;;;36.10;25.99;101300.91;4959264;28;127140;-61
2022/06/10 08:02:47;;;;;;;;;;;;;;;36.58;25.92;101297.75;4940542;28;98528;-67
2022/06/10 08:05:14;;;;;;;;;;;;;;;37.01;25.03;101301.84;4939501;28;118176;-67
2022/06/10 08:07:40;;;;;;;;;;;;;;;37.45;24.46;101302.59;4944566;28;97842;-61
2022/06/10 08:10:07;;;;;;;;;;;;;;;37.76;24.30;101291.91;4978060;28;112598;-67
2022/06/10 08:12:33;;;;;;;;;;;;;;;38.22;23.20;101287.25;4966483;27;103710;-61
2022/06/10 08:14:59;;;;;;;;;;;;;;;38.58;22.68;101295.63;4982435;28;126680;-67
2022/06/10 08:17:24;;;;;;;;;;;;;;;38.94;22.78;101300.34;4985347;28;97984;-61
2022/06/10 08:19:50;;;;;;;;;;;;;;;39.34;22.53;101288.78;4966257;27;99149;-62
2022/06/10 08:22:35;;;;;;;;;;;;;;;39.82;22.17;101292.63;4973352;28;127807;-62
2022/06/10 08:25:03;;;;;;;;;;;;;;;40.40;21.77;101290.38;4944048;28;98271;-62
2022/06/10 08:27:29;;;;;;;;;;;;;;;40.94;21.05;101283.66;4952085;28;97932;-67
2022/06/10 08:29:56;;;;;;;;;;;;;;;41.52;20.66;101276.72;4964183;28;99646;-67
2022/06/10 08:32:22;;;;;;;;;;;;;;;41.81;20.12;101284.84;4978390;27;98922;-61
2022/06/10 08:34:48;;;;;;;;;;;;;;;41.94;19.84;101273.50;4965441;27;98000;-67
2022/06/10 08:37:14;;;;;;;;;;;;;;;42.22;19.53;101276.41;4977968;28;98044;-68
2022/06/10 08:39:40;;;;;;;;;;;;;;;42.51;19.40;101276.00;4978425;27;101059;-67
2022/06/10 08:42:39;;;;;;;;;;;;;;;42.22;19.65;101268.69;4963103;28;128065;-61
2022/06/10 08:45:18;;;;;;;;;;;;;;;42.80;19.07;101267.06;4974015;27;98239;-68
2022/06/10 08:47:59;;;;;;;;;;;;;;;43.34;18.74;101274.72;4978586;27;98230;-61
2022/06/10 08:50:54;;;;;;;;;;;;;;;44.02;18.47;101282.06;4960675;28;123427;-61
2022/06/10 08:53:44;;;;;;;;;;;;;;;44.56;18.47;101269.59;4976533;28;98360;-61
2022/06/10 08:56:17;;;;;;;;;;;;;;;45.03;18.04;101270.78;4980729;28;98159;-68
2022/06/10 08:58:56;;;;;;;;;;;;;;;45.42;17.74;101278.47;4981268;28;98086;-61
2022/06/10 09:01:23;;;;;;;;;;;;;;;45.90;17.32;101267.63;4966243;28;98427;-62
2022/06/10 09:04:04;;;;;;;;;;;;;;;46.22;16.98;101268.66;4970522;28;98095;-67
2022/06/10 09:06:50;;;;;;;;;;;;;;;46.51;16.75;101267.69;4976904;27;116014;-68
2022/06/10 09:09:16;;;;;;;;;;;;;;;46.81;16.35;101255.34;4975423;28;97803;-67
2022/06/10 09:11:51;;;;;;;;;;;;;;;47.04;15.99;101248.59;4980505;28;119214;-61
2022/06/10 09:14:21;;;;;;;;;;;;;;;47.08;16.44;101257.72;4982544;27;98430;-62
2022/06/10 09:16:59;;;;;;;;;;;;;;;47.05;16.49;101255.91;4963829;28;98510;-67
2022/06/10 09:19:46;;;;;;;;;;;;;;;47.16;16.05;101255.19;4977344;28;116156;-61
2022/06/10 09:22:33;;;;;;;;;;;;;;;45.75;16.83;101244.91;4961073;28;120237;-67
2022/06/10 09:25:08;;;;;;;;;;;;;;;45.75;16.49;101244.91;4975982;27;98582;-67
2022/06/10 09:27:36;;;;;;;;;;;;;;;44.58;17.43;101240.72;4945654;28;100065;-69
2022/06/10 09:30:04;;;;;;;;;;;;;;;44.06;17.62;101246.59;4941328;28;98149;-62
2022/06/10 09:33:07;;;;;;;;;;;;;;;43.75;17.62;101237.59;4961630;28;98595;-61
2022/06/10 09:35:39;;;;;;;;;;;;;;;43.80;17.62;101253.94;4955328;28;98380;-66
2022/06/10 09:38:41;;;;;;;;;;;;;;;44.23;17.75;101263.97;4963017;28;124836;-66
2022/06/10 09:41:10;;;;;;;;;;;;;;;44.89;17.20;101260.19;4971250;28;98539;-61
2022/06/10 09:44:04;;;;;;;;;;;;;;;45.48;16.83;101260.25;4979820;28;98398;-60
2022/06/10 09:47:01;;;;;;;;;;;;;;;46.19;16.23;101272.47;4964231;28;97938;-67
2022/06/10 09:49:51;;;;;;;;;;;;;;;46.86;15.98;101263.97;4963071;28;97973;-67
2022/06/10 09:52:33;;;;;;;;;;;;;;;47.54;15.75;101259.69;4961594;28;97921;-61
2022/06/10 09:55:26;;;;;;;;;;;;;;;45.21;16.72;101255.63;4959532;28;124372;-66
2022/06/10 09:58:14;;;;;;;;;;;;;;;44.61;17.00;101251.13;4960336;28;98380;-66
2022/06/10 10:00:55;;;;;;;;;;;;;;;45.87;16.40;101247.91;4977248;28;98287;-66
2022/06/10 10:03:58;;;;;;;;;;;;;;;46.86;15.58;101248.94;4981859;28;98154;-66
2022/06/10 10:06:49;;;;;;;;;;;;;;;47.57;15.04;101243.63;4963085;28;98059;-61
2022/06/10 10:09:53;;;;;;;;;;;;;;;48.16;14.93;101246.63;4974450;28;98185;-66
2022/06/10 10:12:57;;;;;;;;;;;;;;;47.33;15.51;101230.50;4980981;27;98044;-67
2022/06/10 10:15:49;;;;;;;;;;;;;;;47.35;15.35;101233.59;4977177;27;97865;-61
2022/06/10 10:18:24;;;;;;;;;;;;;;;48.23;14.65;101233.16;4962032;28;98916;-66
2022/06/10 10:21:23;;;;;;;;;;;;;;;48.85;14.67;101239.84;4962503;28;99807;-61
2022/06/10 10:23:53;;;;;;;;;;;;;;;46.67;15.32;101219.97;4968201;28;123238;-66
2022/06/10 10:26:25;;;;;;;;;;;;;;;44.87;16.59;101227.84;4961812;28;97952;-60
2022/06/10 10:29:14;;;;;;;;;;;;;;;43.65;17.52;101216.97;4954050;28;98864;-60
2022/06/10 10:31:46;;;;;;;;;;;;;;;41.88;18.34;101213.09;4955924;28;125127;-60
2022/06/10 10:34:25;;;;;;;;;;;;;;;40.35;19.20;101213.91;4956409;28;112884;-60
2022/06/10 10:36:56;;;;;;;;;;;;;;;41.42;18.43;101224.97;4959449;28;97866;-66
2022/06/10 10:39:30;;;;;;;;;;;;;;;40.50;19.15;101217.81;4961420;28;123544;-61
2022/06/10 10:42:13;;;;;;;;;;;;;;;38.97;19.99;101217.78;4962242;28;98632;-60
2022/06/10 10:44:44;;;;;;;;;;;;;;;40.23;19.41;101219.13;4978544;28;127650;-66
2022/06/10 10:47:10;;;;;;;;;;;;;;;42.04;18.41;101224.13;4970701;28;97908;-65
2022/06/10 10:50:07;;;;;;;;;;;;;;;43.48;17.64;101229.97;4981269;27;101432;-60
2022/06/10 10:52:32;;;;;;;;;;;;;;;44.93;16.76;101225.91;4967860;27;122524;-61
2022/06/10 10:55:07;;;;;;;;;;;;;;;45.30;16.51;101226.31;4962161;28;100800;-61
2022/06/10 10:57:37;;;;;;;;;;;;;;;45.94;16.17;101231.19;4965538;28;98263;-66
2022/06/10 11:00:12;;;;;;;;;;;;;;;46.56;15.83;101222.69;4979128;28;124506;-66
2022/06/10 11:02:41;;;;;;;;;;;;;;;47.04;15.85;101231.50;4976762;27;98345;-61
2022/06/10 11:05:32;;;;;;;;;;;;;;;47.44;15.50;101227.72;4962886;28;98090;-66
2022/06/10 11:08:28;;;;;;;;;;;;;;;47.74;15.28;101221.69;4977878;28;97815;-66
2022/06/10 11:11:18;;;;;;;;;;;;;;;47.89;15.24;101210.88;4982099;27;98270;-66
2022/06/10 11:13:50;;;;;;;;;;;;;;;48.06;14.89;101211.00;4958363;28;97935;-60
2022/06/10 11:16:29;;;;;;;;;;;;;;;48.19;14.54;101205.59;4969070;28;98111;-61
2022/06/10 11:19:25;;;;;;;;;;;;;;;48.19;14.47;101217.03;4940201;28;97924;-60
2022/06/10 11:22:07;;;;;;;;;;;;;;;48.38;14.74;101202.25;4939354;28;98516;-61
2022/06/10 11:24:49;;;;;;;;;;;;;;;48.23;14.89;101205.38;4958273;28;98424;-66
2022/06/10 11:27:28;;;;;;;;;;;;;;;46.72;15.55;101196.44;4966546;28;98260;-66
2022/06/10 11:30:14;;;;;;;;;;;;;;;45.51;15.67;101190.19;4962134;28;97863;-65
2022/06/10 11:32:49;;;;;;;;;;;;;;;43.09;16.96;101185.19;4975624;28;98515;-61
2022/06/10 11:35:24;;;;;;;;;;;;;;;42.99;16.95;101194.13;4944371;28;98714;-66
2022/06/10 11:37:52;;;;;;;;;;;;;;;42.30;17.73;101187.88;4979934;27;127761;-66
2022/06/10 11:40:28;;;;;;;;;;;;;;;42.69;17.41;101190.28;4981336;28;114419;-60
2022/06/10 11:43:08;;;;;;;;;;;;;;;41.17;18.17;101183.53;4979052;27;98625;-65
2022/06/10 11:45:39;;;;;;;;;;;;;;;39.77;18.89;101178.31;4961823;28;121647;-60
2022/06/10 11:48:22;;;;;;;;;;;;;;;38.62;20.15;101186.53;4959981;28;107803;-66
2022/06/10 11:50:58;;;;;;;;;;;;;;;37.52;20.63;101176.75;4980645;28;111977;-60
2022/06/10 11:53:45;;;;;;;;;;;;;;;36.66;21.46;101182.53;4948189;28;124245;-65
2022/06/10 12:02:11;;;;;;;;;;;;;;;37.44;21.36;101189.41;4988379;27;98203;-60
2022/06/10 12:04:41;;;;;;;;;;;;;;;36.62;21.80;101189.00;4977931;28;126371;-67
2022/06/10 12:07:13;;;;;;;;;;;;;;;35.93;22.16;101178.56;4945500;28;113236;-65
2022/06/10 12:09:42;;;;;;;;;;;;;;;35.34;22.62;101183.38;4974919;27;125094;-60
2022/06/10 12:12:15;;;;;;;;;;;;;;;34.96;23.06;101173.44;4958325;28;107404;-65
2022/06/10 12:14:43;;;;;;;;;;;;;;;34.62;23.35;101182.59;4959839;28;99035;-65
2022/06/10 12:17:26;;;;;;;;;;;;;;;36.05;22.50;101178.78;4988835;27;98755;-60
2022/06/10 12:19:54;;;;;;;;;;;;;;;36.10;22.91;101177.50;4980707;27;98032;-61
2022/06/10 12:22:20;;;;;;;;;;;;;;;35.39;22.87;101168.91;4979576;28;114210;-64
2022/06/10 12:24:48;;;;;;;;;;;;;;;34.84;23.54;101164.38;4962151;28;98444;-61
2022/06/10 12:27:35;;;;;;;;;;;;;;;34.43;23.93;101173.59;4962623;28;98283;-60
2022/06/10 12:30:04;;;;;;;;;;;;;;;33.92;23.81;101172.41;4993941;27;98339;-67
2022/06/10 12:32:40;;;;;;;;;;;;;;;33.62;23.97;101161.81;4980449;28;97855;-65
2022/06/10 12:35:23;;;;;;;;;;;;;;;33.90;24.01;101165.63;4938181;28;98488;-65
2022/06/10 12:37:51;;;;;;;;;;;;;;;33.70;24.05;101166.16;4942208;28;98252;-65
2022/06/10 12:40:27;;;;;;;;;;;;;;;33.38;25.00;101166.31;4961939;28;124843;-66
2022/06/10 12:42:56;;;;;;;;;;;;;;;33.07;24.77;101164.47;4969158;28;97815;-60
2022/06/10 12:45:32;;;;;;;;;;;;;;;32.74;25.32;101166.56;4980043;27;116963;-60
2022/06/10 12:47:59;;;;;;;;;;;;;;;32.39;25.57;101168.22;4943079;28;99352;-65
2022/06/10 12:50:33;;;;;;;;;;;;;;;32.56;25.25;101174.16;4958112;28;110614;-60
2022/06/10 12:53:05;;;;;;;;;;;;;;;32.34;25.56;101178.94;4959076;28;112367;-66
2022/06/10 12:55:50;;;;;;;;;;;;;;;32.92;25.15;101174.84;4959000;28;99046;-65
2022/06/10 12:58:35;;;;;;;;;;;;;;;33.16;25.28;101168.41;4959730;28;98952;-65
2022/06/10 13:01:30;;;;;;;;;;;;;;;32.93;25.38;101166.13;4983054;28;98001;-65
2022/06/10 13:04:00;;;;;;;;;;;;;;;32.83;25.48;101163.34;4976158;28;98332;-65
2022/06/10 13:06:41;;;;;;;;;;;;;;;32.65;25.86;101171.75;4964894;28;98008;-65
2022/06/10 13:09:10;;;;;;;;;;;;;;;32.46;25.78;101167.38;4979962;27;98456;-66
2022/06/10 13:11:49;;;;;;;;;;;;;;;32.57;25.81;101167.38;4982722;27;98121;-60
2022/06/10 13:14:20;;;;;;;;;;;;;;;33.26;25.23;101172.38;4981208;28;97896;-60
2022/06/10 13:16:59;;;;;;;;;;;;;;;32.80;25.50;101169.72;4979143;28;98359;-65